Aviation Digital Data Service (ADDS)

Output produced by TAFs form (1246 UTC 03 September 2015)
found at http://www.aviationweather.gov/adds/tafs/
 
KALB 031143Z 0312/0412 00000KT 6SM BR MIFG FEW250 
     FM031300 34005KT P6SM SCT080 BKN250 
     FM032000 36006KT P6SM VCSH BKN070 
     FM040300 02008KT P6SM FEW080 BKN200 
     FM041100 03005KT P6SM SCT025 BKN040